createdAt,value
2017-07-03T00:00:45.322Z,0
2017-07-03T00:01:45.296Z,0
2017-07-03T00:02:45.288Z,0
2017-07-03T00:03:45.258Z,0
2017-07-03T00:04:45.280Z,0
2017-07-03T00:05:45.266Z,0
2017-07-03T00:06:44.588Z,0
2017-07-03T00:07:44.880Z,0
2017-07-03T00:08:45.150Z,0
2017-07-03T00:09:45.121Z,0
2017-07-03T00:10:45.102Z,0
2017-07-03T00:11:45.079Z,0
2017-07-03T00:12:45.051Z,0
2017-07-03T00:13:45.342Z,0
2017-07-03T00:14:45.067Z,0
2017-07-03T00:15:44.990Z,0
2017-07-03T00:16:44.965Z,0
2017-07-03T00:17:44.951Z,0
2017-07-03T00:18:44.921Z,0
2017-07-03T00:19:44.899Z,0
2017-07-03T00:20:44.892Z,0
2017-07-03T00:21:44.872Z,0
2017-07-03T00:22:44.839Z,0
2017-07-03T00:23:44.520Z,0
2017-07-03T00:24:44.809Z,0
2017-07-03T00:25:44.774Z,0
2017-07-03T00:26:44.748Z,0
2017-07-03T00:27:44.732Z,0
2017-07-03T00:28:44.722Z,0
2017-07-03T00:29:44.380Z,0
2017-07-03T00:30:44.362Z,0
2017-07-03T00:31:44.644Z,0
2017-07-03T00:32:44.620Z,0
2017-07-03T00:33:44.649Z,0
2017-07-03T00:34:44.572Z,0
2017-07-03T00:35:44.550Z,0
2017-07-03T00:36:44.531Z,0
2017-07-03T00:37:44.508Z,0
2017-07-03T00:38:44.485Z,0
2017-07-03T00:39:44.464Z,0
2017-07-03T00:40:44.493Z,0
2017-07-03T00:41:44.430Z,0
2017-07-03T00:42:44.391Z,0
2017-07-03T00:43:44.380Z,0
2017-07-03T00:44:44.364Z,0
2017-07-03T00:45:44.338Z,0
2017-07-03T00:46:44.317Z,0
2017-07-03T00:47:43.988Z,0
2017-07-03T00:48:43.718Z,0
2017-07-03T00:49:43.998Z,0
2017-07-03T00:50:44.285Z,0
2017-07-03T00:51:44.214Z,0
2017-07-03T00:52:44.179Z,0
2017-07-03T00:53:44.161Z,0
2017-07-03T00:54:44.146Z,0
2017-07-03T00:55:44.115Z,0
2017-07-03T00:56:44.096Z,0
2017-07-03T00:57:44.080Z,0
2017-07-03T00:58:44.060Z,0
2017-07-03T00:59:44.021Z,0
2017-07-03T01:00:44.009Z,0
2017-07-03T01:01:43.980Z,0
2017-07-03T01:02:43.965Z,0
2017-07-03T01:03:43.948Z,0
2017-07-03T01:04:43.932Z,0
2017-07-03T01:05:43.909Z,0
2017-07-03T01:06:43.872Z,0
2017-07-03T01:07:43.855Z,0
2017-07-03T01:08:43.835Z,0
2017-07-03T01:09:43.822Z,0
2017-07-03T01:10:43.795Z,0
2017-07-03T01:11:43.819Z,0
2017-07-03T01:12:43.797Z,0
2017-07-03T01:13:43.732Z,0
2017-07-03T01:14:43.704Z,0
2017-07-03T01:15:43.679Z,0
2017-07-03T01:16:43.433Z,0
2017-07-03T01:17:43.341Z,0
2017-07-03T01:18:43.675Z,0
2017-07-03T01:19:43.596Z,0
2017-07-03T01:20:43.565Z,0
2017-07-03T01:21:43.547Z,0
2017-07-03T01:22:43.519Z,0
2017-07-03T01:23:43.499Z,0
2017-07-03T01:24:43.486Z,0
2017-07-03T01:25:43.462Z,0
2017-07-03T01:26:43.498Z,0
2017-07-03T01:27:43.413Z,0
2017-07-03T01:28:43.389Z,0
2017-07-03T01:29:43.415Z,0
2017-07-03T01:30:43.050Z,0
2017-07-03T01:31:43.386Z,0
2017-07-03T01:32:43.067Z,0
2017-07-03T01:33:43.288Z,0
2017-07-03T01:34:43.261Z,0
2017-07-03T01:35:43.246Z,0
2017-07-03T01:36:43.214Z,0
2017-07-03T01:37:42.889Z,0
2017-07-03T01:38:43.172Z,0
2017-07-03T01:39:43.160Z,0
2017-07-03T01:40:43.129Z,0
2017-07-03T01:41:43.107Z,0
2017-07-03T01:42:43.080Z,0
2017-07-03T01:43:43.062Z,0
2017-07-03T01:44:43.040Z,0
2017-07-03T01:45:43.021Z,0
2017-07-03T01:46:43.004Z,0
2017-07-03T01:47:42.985Z,0
2017-07-03T01:48:42.961Z,0
2017-07-03T01:49:42.923Z,0
2017-07-03T01:50:42.915Z,0
2017-07-03T01:51:42.577Z,0
2017-07-03T01:52:42.863Z,0
2017-07-03T01:53:42.845Z,0
2017-07-03T01:54:42.868Z,0
2017-07-03T01:55:42.842Z,0
2017-07-03T01:56:42.774Z,0
2017-07-03T01:57:42.768Z,0
2017-07-03T01:58:42.781Z,0
2017-07-03T01:59:42.408Z,0
2017-07-03T02:00:42.694Z,0
2017-07-03T02:01:42.719Z,0
2017-07-03T02:02:42.666Z,0
2017-07-03T02:03:42.625Z,0
2017-07-03T02:04:42.600Z,0
2017-07-03T02:05:42.619Z,0
2017-07-03T02:06:42.547Z,0
2017-07-03T02:07:42.543Z,0
2017-07-03T02:08:42.527Z,0
2017-07-03T02:09:42.492Z,0
2017-07-03T02:10:42.166Z,0
2017-07-03T02:11:42.450Z,0
2017-07-03T02:12:42.468Z,0
2017-07-03T02:13:42.399Z,0
2017-07-03T02:14:42.375Z,0
2017-07-03T02:15:42.354Z,0
2017-07-03T02:16:42.332Z,0
2017-07-03T02:17:42.316Z,0
2017-07-03T02:18:42.287Z,0
2017-07-03T02:19:42.276Z,0
2017-07-03T02:20:42.247Z,0
2017-07-03T02:21:42.221Z,0
2017-07-03T02:22:42.203Z,0
2017-07-03T02:23:42.174Z,0
2017-07-03T02:24:42.155Z,0
2017-07-03T02:25:42.132Z,0
2017-07-03T02:26:41.808Z,0
2017-07-03T02:27:42.092Z,0
2017-07-03T02:28:42.073Z,0
2017-07-03T02:29:42.057Z,0
2017-07-03T02:30:42.027Z,0
2017-07-03T02:31:41.996Z,0
2017-07-03T02:32:41.987Z,0
2017-07-03T02:33:41.954Z,0
2017-07-03T02:34:41.943Z,0
2017-07-03T02:35:41.912Z,0
2017-07-03T02:36:41.893Z,0
2017-07-03T02:37:41.568Z,0
2017-07-03T02:38:41.844Z,0
2017-07-03T02:39:41.829Z,0
2017-07-03T02:40:41.501Z,0
2017-07-03T02:41:41.790Z,0
2017-07-03T02:42:41.811Z,0
2017-07-03T02:43:41.726Z,0
2017-07-03T02:44:41.726Z,0
2017-07-03T02:45:41.739Z,0
2017-07-03T02:46:41.678Z,0
2017-07-03T02:47:41.646Z,0
2017-07-03T02:48:41.331Z,0
2017-07-03T02:49:41.599Z,0
2017-07-03T02:50:41.577Z,0
2017-07-03T02:51:41.560Z,0
2017-07-03T02:52:41.540Z,0
2017-07-03T02:53:41.506Z,0
2017-07-03T02:54:41.485Z,0
2017-07-03T02:55:41.483Z,0
2017-07-03T02:56:41.506Z,0
2017-07-03T02:57:41.123Z,0
2017-07-03T02:58:41.399Z,0
2017-07-03T02:59:41.380Z,0
2017-07-03T03:00:41.361Z,0
2017-07-03T03:01:41.340Z,0
2017-07-03T03:02:41.312Z,0
2017-07-03T03:03:41.298Z,0
2017-07-03T03:04:41.326Z,0
2017-07-03T03:05:40.951Z,5
2017-07-03T03:06:41.222Z,5
2017-07-03T03:07:41.196Z,5
2017-07-03T03:08:41.182Z,5
2017-07-03T03:09:41.162Z,5
2017-07-03T03:10:40.833Z,5
2017-07-03T03:11:41.170Z,5
2017-07-03T03:12:41.150Z,5
2017-07-03T03:13:41.069Z,5
2017-07-03T03:14:41.059Z,5
2017-07-03T03:15:41.027Z,10
2017-07-03T03:16:41.002Z,10
2017-07-03T03:17:40.999Z,10
2017-07-03T03:18:40.962Z,10
2017-07-03T03:19:40.936Z,10
2017-07-03T03:20:40.610Z,10
2017-07-03T03:21:40.892Z,10
2017-07-03T03:22:40.882Z,15
2017-07-03T03:23:40.862Z,15
2017-07-03T03:24:40.830Z,15
2017-07-03T03:25:40.797Z,15
2017-07-03T03:26:40.486Z,15
2017-07-03T03:27:40.764Z,20
2017-07-03T03:28:40.737Z,20
2017-07-03T03:29:40.715Z,20
2017-07-03T03:30:40.693Z,20
2017-07-03T03:31:40.672Z,20
2017-07-03T03:32:40.654Z,25
2017-07-03T03:33:40.643Z,25
2017-07-03T03:34:40.602Z,25
2017-07-03T03:35:40.616Z,25
2017-07-03T03:36:40.550Z,30
2017-07-03T03:37:40.534Z,30
2017-07-03T03:38:40.513Z,30
2017-07-03T03:39:40.491Z,30
2017-07-03T03:40:40.470Z,35
2017-07-03T03:41:40.444Z,35
2017-07-03T03:42:40.422Z,40
2017-07-03T03:43:40.421Z,40
2017-07-03T03:44:40.427Z,45
2017-07-03T03:45:40.360Z,45
2017-07-03T03:46:40.039Z,45
2017-07-03T03:47:40.312Z,50
2017-07-03T03:48:39.988Z,55
2017-07-03T03:49:40.268Z,60
2017-07-03T03:50:40.252Z,75
2017-07-03T03:51:40.227Z,85
2017-07-03T03:52:40.208Z,90
2017-07-03T03:53:40.186Z,100
2017-07-03T03:54:39.866Z,110
2017-07-03T03:55:40.132Z,115
2017-07-03T03:56:40.111Z,120
2017-07-03T03:57:40.085Z,125
2017-07-03T03:58:40.132Z,130
2017-07-03T03:59:40.051Z,135
2017-07-03T04:00:40.028Z,140
2017-07-03T04:01:39.996Z,145
2017-07-03T04:02:40.278Z,150
2017-07-03T04:03:39.958Z,155
2017-07-03T04:04:39.926Z,160
2017-07-03T04:05:39.930Z,165
2017-07-03T04:06:39.301Z,170
2017-07-03T04:07:39.873Z,170
2017-07-03T04:08:39.907Z,175
2017-07-03T04:09:39.833Z,180
2017-07-03T04:10:39.812Z,185
2017-07-03T04:11:39.779Z,190
2017-07-03T04:12:39.772Z,195
2017-07-03T04:13:39.740Z,200
2017-07-03T04:14:39.723Z,205
2017-07-03T04:15:39.412Z,210
2017-07-03T04:16:39.087Z,215
2017-07-03T04:17:39.663Z,220
2017-07-03T04:18:39.674Z,225
2017-07-03T04:19:39.622Z,235
2017-07-03T04:20:39.645Z,230
2017-07-03T04:21:39.576Z,235
2017-07-03T04:22:39.565Z,240
2017-07-03T04:23:39.531Z,245
2017-07-03T04:24:39.514Z,250
2017-07-03T04:25:39.189Z,255
2017-07-03T04:26:39.472Z,260
2017-07-03T04:27:39.455Z,265
2017-07-03T04:28:39.483Z,265
2017-07-03T04:29:39.413Z,270
2017-07-03T04:30:39.138Z,280
2017-07-03T04:31:39.066Z,280
2017-07-03T04:32:39.362Z,285
2017-07-03T04:33:39.388Z,290
2017-07-03T04:34:39.317Z,300
2017-07-03T04:35:39.284Z,300
2017-07-03T04:36:39.274Z,305
2017-07-03T04:37:39.253Z,305
2017-07-03T04:38:39.230Z,305
2017-07-03T04:39:39.211Z,315
2017-07-03T04:40:39.195Z,315
2017-07-03T04:41:38.900Z,320
2017-07-03T04:42:39.147Z,325
2017-07-03T04:43:39.137Z,335
2017-07-03T04:44:39.111Z,335
2017-07-03T04:45:39.147Z,340
2017-07-03T04:46:39.074Z,345
2017-07-03T04:47:39.064Z,345
2017-07-03T04:48:39.041Z,350
2017-07-03T04:49:39.021Z,355
2017-07-03T04:50:39.002Z,360
2017-07-03T04:51:38.732Z,360
2017-07-03T04:52:38.967Z,365
2017-07-03T04:53:38.949Z,375
2017-07-03T04:54:38.923Z,375
2017-07-03T04:55:38.903Z,370
2017-07-03T04:56:38.885Z,380
2017-07-03T04:57:38.866Z,380
2017-07-03T04:58:38.848Z,390
2017-07-03T04:59:38.819Z,395
2017-07-03T05:00:38.809Z,400
2017-07-03T05:01:38.795Z,405
2017-07-03T05:02:38.768Z,405
2017-07-03T05:03:38.510Z,410
2017-07-03T05:04:38.445Z,415
2017-07-03T05:05:38.721Z,425
2017-07-03T05:06:38.458Z,440
2017-07-03T05:07:38.739Z,450
2017-07-03T05:08:38.770Z,450
2017-07-03T05:09:38.656Z,455
2017-07-03T05:10:38.621Z,455
2017-07-03T05:11:38.663Z,460
2017-07-03T05:12:38.584Z,465
2017-07-03T05:13:38.568Z,470
2017-07-03T05:14:38.568Z,480
2017-07-03T05:15:38.541Z,480
2017-07-03T05:16:38.218Z,485
2017-07-03T05:17:38.503Z,495
2017-07-03T05:18:38.475Z,500
2017-07-03T05:19:38.512Z,510
2017-07-03T05:20:38.493Z,515
2017-07-03T05:21:38.129Z,520
2017-07-03T05:22:38.417Z,525
2017-07-03T05:23:38.422Z,525
2017-07-03T05:24:38.391Z,535
2017-07-03T05:25:38.417Z,535
2017-07-03T05:26:38.341Z,540
2017-07-03T05:27:38.333Z,545
2017-07-03T05:28:38.324Z,550
2017-07-03T05:29:38.302Z,560
2017-07-03T05:30:38.291Z,570
2017-07-03T05:31:38.272Z,580
2017-07-03T05:32:38.249Z,580
2017-07-03T05:33:38.234Z,585
2017-07-03T05:34:38.272Z,595
2017-07-03T05:35:38.189Z,600
2017-07-03T05:36:38.247Z,605
2017-07-03T05:37:38.171Z,605
2017-07-03T05:38:38.148Z,610
2017-07-03T05:39:37.832Z,620
2017-07-03T05:40:37.870Z,635
2017-07-03T05:41:38.109Z,635
2017-07-03T05:42:38.078Z,650
2017-07-03T05:43:38.082Z,650
2017-07-03T05:44:38.119Z,675
2017-07-03T05:45:38.035Z,690
2017-07-03T05:46:38.013Z,690
2017-07-03T05:47:38.012Z,700
2017-07-03T05:48:38.004Z,690
2017-07-03T05:49:38.028Z,700
2017-07-03T05:50:38.009Z,710
2017-07-03T05:51:37.952Z,725
2017-07-03T05:52:37.994Z,735
2017-07-03T05:53:37.942Z,740
2017-07-03T05:54:37.898Z,735
2017-07-03T05:55:37.893Z,720
2017-07-03T05:56:37.864Z,730
2017-07-03T05:57:37.578Z,720
2017-07-03T05:58:37.904Z,705
2017-07-03T05:59:37.548Z,715
2017-07-03T06:00:37.821Z,715
2017-07-03T06:01:37.821Z,715
2017-07-03T06:02:37.502Z,710
2017-07-03T06:03:37.466Z,735
2017-07-03T06:04:37.754Z,740
2017-07-03T06:05:37.761Z,760
2017-07-03T06:06:37.727Z,785
2017-07-03T06:07:37.718Z,815
2017-07-03T06:08:37.713Z,835
2017-07-03T06:09:37.701Z,835
2017-07-03T06:10:37.727Z,810
2017-07-03T06:11:37.661Z,820
2017-07-03T06:12:37.692Z,820
2017-07-03T06:13:37.339Z,830
2017-07-03T06:14:37.664Z,870
2017-07-03T06:15:37.342Z,865
2017-07-03T06:16:37.576Z,770
2017-07-03T06:17:36.977Z,845
2017-07-03T06:18:37.570Z,850
2017-07-03T06:19:37.549Z,855
2017-07-03T06:20:37.542Z,860
2017-07-03T06:21:37.516Z,855
2017-07-03T06:22:37.514Z,925
2017-07-03T06:23:37.489Z,960
2017-07-03T06:24:37.482Z,925
2017-07-03T06:25:37.458Z,950
2017-07-03T06:26:37.159Z,945
2017-07-03T06:27:37.440Z,945
2017-07-03T06:28:37.180Z,930
2017-07-03T06:29:37.420Z,945
2017-07-03T06:30:37.404Z,935
2017-07-03T06:31:37.389Z,935
2017-07-03T06:32:37.430Z,940
2017-07-03T06:33:37.105Z,950
2017-07-03T06:34:37.054Z,975
2017-07-03T06:35:37.040Z,995
2017-07-03T06:36:37.318Z,1010
2017-07-03T06:37:37.311Z,1015
2017-07-03T06:38:37.312Z,1040
2017-07-03T06:39:37.295Z,1035
2017-07-03T06:40:37.338Z,1040
2017-07-03T06:41:37.270Z,1060
2017-07-03T06:42:37.516Z,1080
2017-07-03T06:43:37.244Z,1075
2017-07-03T06:44:37.229Z,1105
2017-07-03T06:45:37.266Z,1115
2017-07-03T06:46:37.206Z,1115
2017-07-03T06:47:37.549Z,1100
2017-07-03T06:48:37.190Z,1105
2017-07-03T06:49:37.171Z,1075
2017-07-03T06:50:37.153Z,1120
2017-07-03T06:51:37.155Z,1100
2017-07-03T06:52:36.835Z,1125
2017-07-03T06:53:37.226Z,1120
2017-07-03T06:54:37.153Z,1140
2017-07-03T06:55:37.150Z,1150
2017-07-03T06:56:37.092Z,1165
2017-07-03T06:57:37.098Z,1165
2017-07-03T06:58:37.166Z,1165
2017-07-03T06:59:37.111Z,1185
2017-07-03T07:00:37.064Z,1100
2017-07-03T07:01:37.043Z,1185
2017-07-03T07:02:37.034Z,1190
2017-07-03T07:03:37.114Z,1195
2017-07-03T07:04:36.747Z,1210
2017-07-03T07:05:37.009Z,1220
2017-07-03T07:06:36.992Z,1245
2017-07-03T07:07:36.983Z,1240
2017-07-03T07:08:37.026Z,1310
2017-07-03T07:09:36.972Z,1275
2017-07-03T07:10:36.973Z,1250
2017-07-03T07:11:37.036Z,1155
2017-07-03T07:12:36.925Z,1070
2017-07-03T07:13:36.915Z,1070
2017-07-03T07:14:36.973Z,990
2017-07-03T07:15:36.886Z,970
2017-07-03T07:16:36.894Z,945
2017-07-03T07:17:36.924Z,850
2017-07-03T07:18:36.580Z,770
2017-07-03T07:19:36.867Z,995
2017-07-03T07:20:36.831Z,945
2017-07-03T07:21:36.822Z,1165
2017-07-03T07:22:36.822Z,955
2017-07-03T07:23:36.808Z,825
2017-07-03T07:24:36.799Z,960
2017-07-03T07:25:36.178Z,1110
2017-07-03T07:26:36.765Z,1300
2017-07-03T07:27:36.775Z,1490
2017-07-03T07:28:36.754Z,1235
2017-07-03T07:29:36.749Z,1255
2017-07-03T07:30:36.775Z,1335
2017-07-03T07:31:36.725Z,1435
2017-07-03T07:32:36.695Z,1390
2017-07-03T07:33:36.683Z,1425
2017-07-03T07:34:36.698Z,1475
2017-07-03T07:35:36.687Z,1475
2017-07-03T07:36:36.709Z,1445
2017-07-03T07:37:36.645Z,1450
2017-07-03T07:38:36.647Z,1470
2017-07-03T07:39:36.322Z,1465
2017-07-03T07:40:36.678Z,1460
2017-07-03T07:41:36.621Z,1480
2017-07-03T07:42:36.593Z,1485
2017-07-03T07:43:36.610Z,1480
2017-07-03T07:44:36.592Z,1470
2017-07-03T07:45:36.576Z,1495
2017-07-03T07:46:36.670Z,1485
2017-07-03T07:47:36.567Z,1485
2017-07-03T07:48:36.550Z,1505
2017-07-03T07:49:36.542Z,1505
2017-07-03T07:50:36.524Z,1525
2017-07-03T07:51:36.518Z,1510
2017-07-03T07:52:36.206Z,1515
2017-07-03T07:53:36.519Z,1535
2017-07-03T07:54:36.195Z,1510
2017-07-03T07:55:36.496Z,1530
2017-07-03T07:56:36.481Z,1550
2017-07-03T07:57:36.471Z,1485
2017-07-03T07:58:36.495Z,1565
2017-07-03T07:59:36.453Z,1590
2017-07-03T08:00:36.455Z,1585
2017-07-03T08:01:36.684Z,1620
2017-07-03T08:02:36.437Z,1610
2017-07-03T08:03:36.419Z,1595
2017-07-03T08:04:36.118Z,1660
2017-07-03T08:05:36.107Z,1605
2017-07-03T08:06:36.104Z,1630
2017-07-03T08:07:36.396Z,1675
2017-07-03T08:08:36.077Z,1685
2017-07-03T08:09:36.370Z,1685
2017-07-03T08:10:36.121Z,1700
2017-07-03T08:11:36.357Z,1655
2017-07-03T08:12:36.368Z,1715
2017-07-03T08:13:36.345Z,1780
2017-07-03T08:14:36.388Z,1775
2017-07-03T08:15:36.332Z,1755
2017-07-03T08:16:36.323Z,1745
2017-07-03T08:17:36.380Z,1765
2017-07-03T08:18:35.709Z,1765
2017-07-03T08:19:36.305Z,1730
2017-07-03T08:20:36.296Z,1765
2017-07-03T08:21:36.283Z,1740
2017-07-03T08:22:36.276Z,1730
2017-07-03T08:23:36.283Z,1715
2017-07-03T08:24:36.275Z,1710
2017-07-03T08:25:36.264Z,1720
2017-07-03T08:26:36.249Z,1730
2017-07-03T08:27:35.947Z,1740
2017-07-03T08:28:36.237Z,1735
2017-07-03T08:29:36.236Z,1520
2017-07-03T08:30:35.988Z,1590
2017-07-03T08:31:36.585Z,1605
2017-07-03T08:32:35.970Z,1690
2017-07-03T08:33:36.223Z,1705
2017-07-03T08:34:35.907Z,1710
2017-07-03T08:35:36.294Z,1715
2017-07-03T08:36:36.191Z,1665
2017-07-03T08:37:35.876Z,1735
2017-07-03T08:38:36.183Z,1725
2017-07-03T08:39:36.200Z,1720
2017-07-03T08:40:36.164Z,1695
2017-07-03T08:41:35.853Z,1870
2017-07-03T08:42:36.209Z,1965
2017-07-03T08:43:35.846Z,2010
2017-07-03T08:44:36.152Z,2085
2017-07-03T08:45:35.844Z,2110
2017-07-03T08:46:36.129Z,2080
2017-07-03T08:47:36.123Z,2015
2017-07-03T08:48:36.171Z,2130
2017-07-03T08:49:36.113Z,2020
2017-07-03T08:50:36.100Z,1900
2017-07-03T08:51:36.114Z,1820
2017-07-03T08:52:35.794Z,1815
2017-07-03T08:53:36.115Z,1815
2017-07-03T08:54:36.097Z,1790
2017-07-03T08:55:35.773Z,1795
2017-07-03T08:56:36.071Z,1840
2017-07-03T08:57:35.762Z,1855
2017-07-03T08:58:36.073Z,1860
2017-07-03T08:59:35.768Z,1900
2017-07-03T09:00:36.309Z,1845
2017-07-03T09:01:36.049Z,1875
2017-07-03T09:02:36.037Z,1925
2017-07-03T09:03:35.791Z,1910
2017-07-03T09:04:36.042Z,1935
2017-07-03T09:05:36.019Z,1925
2017-07-03T09:06:36.009Z,1950
2017-07-03T09:07:36.100Z,1925
2017-07-03T09:08:36.002Z,1910
2017-07-03T09:09:36.159Z,1890
2017-07-03T09:10:35.992Z,1975
2017-07-03T09:11:35.994Z,1960
2017-07-03T09:12:35.985Z,1970
2017-07-03T09:13:35.972Z,1970
2017-07-03T09:14:35.978Z,1955
2017-07-03T09:15:36.078Z,1905
2017-07-03T09:16:35.443Z,1945
2017-07-03T09:17:35.962Z,1985
2017-07-03T09:18:35.954Z,1965
2017-07-03T09:19:35.965Z,1965
2017-07-03T09:20:35.669Z,1975
2017-07-03T09:21:35.925Z,1985
2017-07-03T09:22:35.923Z,1960
2017-07-03T09:23:35.613Z,1985
2017-07-03T09:24:35.904Z,2065
2017-07-03T09:25:35.976Z,1950
2017-07-03T09:26:35.652Z,2010
2017-07-03T09:27:35.901Z,2065
2017-07-03T09:28:35.894Z,2055
2017-07-03T09:29:35.589Z,2060
2017-07-03T09:30:35.883Z,1935
2017-07-03T09:31:35.891Z,2065
2017-07-03T09:32:35.567Z,2090
2017-07-03T09:33:35.576Z,2130
2017-07-03T09:34:35.606Z,2160
2017-07-03T09:35:35.355Z,2110
2017-07-03T09:36:35.852Z,2195
2017-07-03T09:37:35.843Z,2170
2017-07-03T09:38:35.833Z,2135
2017-07-03T09:39:35.828Z,2145
2017-07-03T09:40:35.515Z,2060
2017-07-03T09:41:35.825Z,2110
2017-07-03T09:42:35.923Z,2100
2017-07-03T09:43:35.855Z,2100
2017-07-03T09:44:35.807Z,2065
2017-07-03T09:45:35.955Z,2190
2017-07-03T09:46:35.501Z,2160
2017-07-03T09:47:35.487Z,2210
2017-07-03T09:48:35.484Z,2160
2017-07-03T09:49:35.775Z,2155
2017-07-03T09:50:35.771Z,2155
2017-07-03T09:51:35.764Z,2190
2017-07-03T09:52:35.463Z,2185
2017-07-03T09:53:35.738Z,2215
2017-07-03T09:54:35.750Z,2215
2017-07-03T09:55:35.739Z,2180
2017-07-03T09:56:35.734Z,2170
2017-07-03T09:57:35.689Z,2220
2017-07-03T09:58:35.782Z,2195
2017-07-03T09:59:35.720Z,2175
2017-07-03T10:00:35.768Z,2210
2017-07-03T10:01:35.952Z,2215
2017-07-03T10:02:35.500Z,2175
2017-07-03T10:03:35.692Z,2165
2017-07-03T10:04:35.696Z,2130
2017-07-03T10:05:35.692Z,2070
2017-07-03T10:06:35.681Z,2085
2017-07-03T10:07:35.667Z,2055
2017-07-03T10:08:35.726Z,2075
2017-07-03T10:09:35.669Z,2020
2017-07-03T10:10:35.703Z,2010
2017-07-03T10:11:35.057Z,2060
2017-07-03T10:12:35.652Z,2055
2017-07-03T10:13:35.408Z,2150
2017-07-03T10:14:35.632Z,2195
2017-07-03T10:15:35.315Z,2215
2017-07-03T10:16:35.622Z,2235
2017-07-03T10:17:35.614Z,2260
2017-07-03T10:18:35.644Z,2295
2017-07-03T10:19:35.600Z,2330
2017-07-03T10:20:35.598Z,2300
2017-07-03T10:21:35.592Z,2295
2017-07-03T10:22:35.594Z,2275
2017-07-03T10:23:35.596Z,2355
2017-07-03T10:24:35.623Z,2365
2017-07-03T10:25:35.566Z,2375
2017-07-03T10:26:35.613Z,2265
2017-07-03T10:27:35.566Z,2340
2017-07-03T10:28:35.615Z,2320
2017-07-03T10:29:35.564Z,2370
2017-07-03T10:30:35.594Z,2370
2017-07-03T10:31:35.219Z,2360
2017-07-03T10:32:35.724Z,2325
2017-07-03T10:33:35.515Z,2175
2017-07-03T10:34:35.314Z,2295
2017-07-03T10:35:35.509Z,2245
2017-07-03T10:36:35.202Z,2305
2017-07-03T10:37:35.514Z,2375
2017-07-03T10:38:35.501Z,2385
2017-07-03T10:39:35.494Z,2365
2017-07-03T10:40:35.168Z,2345
2017-07-03T10:41:35.467Z,2335
2017-07-03T10:42:35.523Z,2345
2017-07-03T10:43:35.470Z,2345
2017-07-03T10:44:35.451Z,2345
2017-07-03T10:45:35.570Z,2330
2017-07-03T10:46:35.436Z,2320
2017-07-03T10:47:35.433Z,2330
2017-07-03T10:48:35.425Z,2375
2017-07-03T10:49:35.417Z,2425
2017-07-03T10:50:35.414Z,2455
2017-07-03T10:51:35.107Z,2430
2017-07-03T10:52:35.412Z,2320
2017-07-03T10:53:35.407Z,2345
2017-07-03T10:54:35.137Z,2290
2017-07-03T10:55:35.434Z,2425
2017-07-03T10:56:35.365Z,2435
2017-07-03T10:57:35.364Z,2395
2017-07-03T10:58:35.372Z,2370
2017-07-03T10:59:35.357Z,2340
2017-07-03T11:00:35.354Z,2300
2017-07-03T11:01:35.399Z,2300
2017-07-03T11:02:35.342Z,2240
2017-07-03T11:03:35.396Z,2175
2017-07-03T11:04:35.326Z,2105
2017-07-03T11:05:34.725Z,2065
2017-07-03T11:06:35.324Z,2095
2017-07-03T11:07:35.363Z,2025
2017-07-03T11:08:35.655Z,1225
2017-07-03T11:09:35.310Z,385
2017-07-03T11:10:35.009Z,290
2017-07-03T11:11:34.987Z,300
2017-07-03T11:12:35.335Z,575
2017-07-03T11:13:35.279Z,1270
2017-07-03T11:14:34.979Z,1970
2017-07-03T11:15:35.266Z,2410
2017-07-03T11:16:35.260Z,2400
2017-07-03T11:17:35.239Z,2340
2017-07-03T11:18:35.241Z,2450
2017-07-03T11:19:35.230Z,2450
2017-07-03T11:20:34.924Z,1755
2017-07-03T11:21:35.210Z,600
2017-07-03T11:22:35.210Z,320
2017-07-03T11:23:35.203Z,340
2017-07-03T11:24:35.251Z,325
2017-07-03T11:25:35.181Z,300
2017-07-03T11:26:35.184Z,285
2017-07-03T11:27:34.872Z,280
2017-07-03T11:28:35.182Z,300
2017-07-03T11:29:34.842Z,285
2017-07-03T11:30:34.831Z,320
2017-07-03T11:31:35.168Z,320
2017-07-03T11:32:35.116Z,310
2017-07-03T11:33:35.099Z,295
2017-07-03T11:34:35.096Z,280
2017-07-03T11:35:34.772Z,295
2017-07-03T11:36:35.055Z,280
2017-07-03T11:37:35.055Z,260
2017-07-03T11:38:35.197Z,255
2017-07-03T11:39:35.149Z,255
2017-07-03T11:40:35.023Z,255
2017-07-03T11:41:34.701Z,250
2017-07-03T11:42:35.134Z,250
2017-07-03T11:43:35.031Z,245
2017-07-03T11:44:34.958Z,245
2017-07-03T11:45:34.941Z,240
2017-07-03T11:46:34.934Z,245
2017-07-03T11:47:34.956Z,240
2017-07-03T11:48:34.903Z,245
2017-07-03T11:49:34.947Z,250
2017-07-03T11:50:34.867Z,255
2017-07-03T11:51:34.861Z,270
2017-07-03T11:52:34.941Z,285
2017-07-03T11:53:34.835Z,260
2017-07-03T11:54:34.812Z,250
2017-07-03T11:55:34.830Z,240
2017-07-03T11:56:34.776Z,245
2017-07-03T11:57:34.770Z,245
2017-07-03T11:58:34.443Z,245
2017-07-03T11:59:34.526Z,245
2017-07-03T12:00:34.813Z,240
2017-07-03T12:01:34.704Z,245
2017-07-03T12:02:34.680Z,245
2017-07-03T12:03:34.676Z,240
2017-07-03T12:04:34.657Z,230
2017-07-03T12:05:34.729Z,230
2017-07-03T12:06:34.323Z,220
2017-07-03T12:07:34.652Z,215
2017-07-03T12:08:34.596Z,210
2017-07-03T12:09:34.572Z,215
2017-07-03T12:10:34.552Z,215
2017-07-03T12:11:34.537Z,220
2017-07-03T12:12:34.537Z,220
2017-07-03T12:13:34.259Z,215
2017-07-03T12:14:34.499Z,235
2017-07-03T12:15:34.677Z,245
2017-07-03T12:16:34.558Z,245
2017-07-03T12:17:34.442Z,240
2017-07-03T12:18:34.239Z,240
2017-07-03T12:19:34.426Z,260
2017-07-03T12:20:34.393Z,265
2017-07-03T12:21:34.385Z,265
2017-07-03T12:22:34.620Z,270
2017-07-03T12:23:34.358Z,285
2017-07-03T12:24:34.350Z,295
2017-07-03T12:25:34.331Z,315
2017-07-03T12:26:34.399Z,360
2017-07-03T12:27:34.284Z,415
2017-07-03T12:28:34.287Z,450
2017-07-03T12:29:34.258Z,500
2017-07-03T12:30:34.385Z,525
2017-07-03T12:31:34.225Z,555
2017-07-03T12:32:34.208Z,540
2017-07-03T12:33:34.189Z,530
2017-07-03T12:34:34.236Z,480
2017-07-03T12:35:34.163Z,480
2017-07-03T12:36:34.138Z,540
2017-07-03T12:37:34.178Z,550
2017-07-03T12:38:34.115Z,495
2017-07-03T12:39:34.206Z,495
2017-07-03T12:40:34.072Z,500
2017-07-03T12:41:34.067Z,465
2017-07-03T12:42:34.055Z,440
2017-07-03T12:43:34.085Z,415
2017-07-03T12:44:34.025Z,425
2017-07-03T12:45:34.306Z,440
2017-07-03T12:46:33.992Z,475
2017-07-03T12:47:33.984Z,460
2017-07-03T12:48:34.017Z,470
2017-07-03T12:49:33.657Z,490
2017-07-03T12:50:33.936Z,510
2017-07-03T12:51:33.623Z,530
2017-07-03T12:52:33.911Z,540
2017-07-03T12:53:33.583Z,555
2017-07-03T12:54:33.873Z,555
2017-07-03T12:55:33.620Z,560
2017-07-03T12:56:33.244Z,550
2017-07-03T12:57:33.838Z,555
2017-07-03T12:58:33.505Z,550
2017-07-03T12:59:33.794Z,570
2017-07-03T13:00:33.530Z,585
2017-07-03T13:01:33.784Z,610
2017-07-03T13:02:33.547Z,620
2017-07-03T13:03:33.745Z,610
2017-07-03T13:04:33.724Z,600
2017-07-03T13:05:33.413Z,595
2017-07-03T13:06:33.692Z,600
2017-07-03T13:07:33.727Z,620
2017-07-03T13:08:33.393Z,625
2017-07-03T13:09:33.673Z,635
2017-07-03T13:10:33.637Z,645
2017-07-03T13:11:33.616Z,655
2017-07-03T13:12:33.706Z,650
2017-07-03T13:13:33.350Z,635
2017-07-03T13:14:33.276Z,630
2017-07-03T13:15:33.261Z,625
2017-07-03T13:16:33.622Z,610
2017-07-03T13:17:33.258Z,600
2017-07-03T13:18:33.528Z,590
2017-07-03T13:19:33.516Z,570
2017-07-03T13:20:33.590Z,570
2017-07-03T13:21:33.486Z,580
2017-07-03T13:22:32.912Z,575
2017-07-03T13:23:33.449Z,570
2017-07-03T13:24:33.145Z,585
2017-07-03T13:25:33.433Z,595
2017-07-03T13:26:33.413Z,610
2017-07-03T13:27:32.793Z,615
2017-07-03T13:28:33.387Z,595
2017-07-03T13:29:33.371Z,580
2017-07-03T13:30:33.352Z,570
2017-07-03T13:31:33.335Z,570
2017-07-03T13:32:33.323Z,560
2017-07-03T13:33:33.330Z,555
2017-07-03T13:34:32.995Z,560
2017-07-03T13:35:33.035Z,590
2017-07-03T13:36:33.273Z,615
2017-07-03T13:37:33.355Z,615
2017-07-03T13:38:33.284Z,580
2017-07-03T13:39:33.233Z,565
2017-07-03T13:40:32.907Z,550
2017-07-03T13:41:33.196Z,545
2017-07-03T13:42:33.199Z,540
2017-07-03T13:43:33.377Z,530
2017-07-03T13:44:32.852Z,525
2017-07-03T13:45:32.831Z,520
2017-07-03T13:46:32.823Z,535
2017-07-03T13:47:32.683Z,545
2017-07-03T13:48:32.792Z,570
2017-07-03T13:49:33.137Z,580
2017-07-03T13:50:33.069Z,575
2017-07-03T13:51:33.063Z,565